sensor_id;sensor_type;location;lat;lon;timestamp;pressure;altitude;pressure_sealevel;temperature;humidity
62055;BME280;48653;51.742;-1.256;2024-02-21T00:03:45;101287.01;;;10.85;51.91
62055;BME280;48653;51.742;-1.256;2024-02-21T00:06:10;101289.91;;;10.63;52.79
62055;BME280;48653;51.742;-1.256;2024-02-21T00:08:35;101287.46;;;10.19;54.21
62055;BME280;48653;51.742;-1.256;2024-02-21T00:11:01;101284.90;;;9.92;54.70
62055;BME280;48653;51.742;-1.256;2024-02-21T00:13:26;101276.15;;;9.93;55.23
62055;BME280;48653;51.742;-1.256;2024-02-21T00:15:51;101269.57;;;9.95;54.75
62055;BME280;48653;51.742;-1.256;2024-02-21T00:18:17;101267.14;;;9.95;55.59
62055;BME280;48653;51.742;-1.256;2024-02-21T00:20:42;101257.80;;;9.80;54.79
62055;BME280;48653;51.742;-1.256;2024-02-21T00:23:07;101252.60;;;9.12;57.11
62055;BME280;48653;51.742;-1.256;2024-02-21T00:25:32;101241.71;;;10.20;54.69
62055;BME280;48653;51.742;-1.256;2024-02-21T00:27:58;101237.41;;;9.80;55.63
62055;BME280;48653;51.742;-1.256;2024-02-21T00:30:23;101233.93;;;9.97;55.30
62055;BME280;48653;51.742;-1.256;2024-02-21T00:32:48;101233.43;;;9.48;56.10
62055;BME280;48653;51.742;-1.256;2024-02-21T00:35:14;101235.67;;;9.61;56.23
62055;BME280;48653;51.742;-1.256;2024-02-21T00:37:39;101232.35;;;9.39;56.55
62055;BME280;48653;51.742;-1.256;2024-02-21T00:40:06;101231.48;;;9.79;56.60
62055;BME280;48653;51.742;-1.256;2024-02-21T00:42:29;101227.53;;;9.39;56.85
62055;BME280;48653;51.742;-1.256;2024-02-21T00:44:54;101219.27;;;9.53;56.05
62055;BME280;48653;51.742;-1.256;2024-02-21T00:47:20;101218.48;;;9.43;56.88
62055;BME280;48653;51.742;-1.256;2024-02-21T00:49:45;101216.94;;;9.03;57.25
62055;BME280;48653;51.742;-1.256;2024-02-21T00:52:10;101216.26;;;9.03;58.29
62055;BME280;48653;51.742;-1.256;2024-02-21T00:54:36;101221.25;;;9.43;56.91
62055;BME280;48653;51.742;-1.256;2024-02-21T00:57:01;101216.13;;;9.42;56.90
62055;BME280;48653;51.742;-1.256;2024-02-21T00:59:27;101208.84;;;9.46;56.68
62055;BME280;48653;51.742;-1.256;2024-02-21T01:01:52;101198.72;;;9.60;56.91
62055;BME280;48653;51.742;-1.256;2024-02-21T01:04:17;101193.45;;;9.32;58.04
62055;BME280;48653;51.742;-1.256;2024-02-21T01:06:42;101192.57;;;8.32;60.32
62055;BME280;48653;51.742;-1.256;2024-02-21T01:09:08;101188.03;;;8.08;61.54
62055;BME280;48653;51.742;-1.256;2024-02-21T01:11:33;101179.47;;;9.43;58.98
62055;BME280;48653;51.742;-1.256;2024-02-21T01:13:59;101171.77;;;9.79;57.32
62055;BME280;48653;51.742;-1.256;2024-02-21T01:16:23;101167.58;;;9.29;58.04
62055;BME280;48653;51.742;-1.256;2024-02-21T01:18:49;101159.79;;;9.62;58.19
62055;BME280;48653;51.742;-1.256;2024-02-21T01:21:14;101154.07;;;9.25;57.69
62055;BME280;48653;51.742;-1.256;2024-02-21T01:23:40;101151.92;;;9.11;58.81
62055;BME280;48653;51.742;-1.256;2024-02-21T01:26:05;101146.33;;;9.30;57.80
62055;BME280;48653;51.742;-1.256;2024-02-21T01:28:30;101143.11;;;9.30;58.34
62055;BME280;48653;51.742;-1.256;2024-02-21T01:30:56;101130.08;;;8.86;58.80
62055;BME280;48653;51.742;-1.256;2024-02-21T01:33:21;101122.46;;;8.71;58.98
62055;BME280;48653;51.742;-1.256;2024-02-21T01:35:46;101118.46;;;9.23;58.00
62055;BME280;48653;51.742;-1.256;2024-02-21T01:38:12;101111.71;;;9.41;57.58
62055;BME280;48653;51.742;-1.256;2024-02-21T01:40:36;101105.39;;;9.28;57.71
62055;BME280;48653;51.742;-1.256;2024-02-21T01:43:02;101100.19;;;10.17;55.83
62055;BME280;48653;51.742;-1.256;2024-02-21T01:45:27;101098.07;;;9.74;56.34
62055;BME280;48653;51.742;-1.256;2024-02-21T01:47:53;101090.38;;;10.06;55.54
62055;BME280;48653;51.742;-1.256;2024-02-21T01:50:18;101084.88;;;9.23;58.53
62055;BME280;48653;51.742;-1.256;2024-02-21T01:52:46;101074.02;;;9.44;57.90
62055;BME280;48653;51.742;-1.256;2024-02-21T01:55:09;101063.26;;;9.00;58.24
62055;BME280;48653;51.742;-1.256;2024-02-21T01:57:34;101061.43;;;9.45;57.77
62055;BME280;48653;51.742;-1.256;2024-02-21T01:59:59;101052.47;;;9.69;56.25
62055;BME280;48653;51.742;-1.256;2024-02-21T02:02:24;101045.07;;;9.69;56.47
62055;BME280;48653;51.742;-1.256;2024-02-21T02:04:50;101038.94;;;10.11;55.70
62055;BME280;48653;51.742;-1.256;2024-02-21T02:07:16;101033.66;;;9.98;55.45
62055;BME280;48653;51.742;-1.256;2024-02-21T02:09:42;101025.60;;;9.30;56.45
62055;BME280;48653;51.742;-1.256;2024-02-21T02:12:07;101024.58;;;9.56;56.73
62055;BME280;48653;51.742;-1.256;2024-02-21T02:14:31;101019.14;;;8.69;58.44
62055;BME280;48653;51.742;-1.256;2024-02-21T02:16:57;101013.73;;;9.38;57.34
62055;BME280;48653;51.742;-1.256;2024-02-21T02:19:23;101007.28;;;8.80;58.26
62055;BME280;48653;51.742;-1.256;2024-02-21T02:21:50;101008.29;;;9.14;57.77
62055;BME280;48653;51.742;-1.256;2024-02-21T02:24:13;101002.80;;;9.13;59.24
62055;BME280;48653;51.742;-1.256;2024-02-21T02:26:38;100998.32;;;9.31;57.85
62055;BME280;48653;51.742;-1.256;2024-02-21T02:29:03;100996.31;;;9.53;58.14
62055;BME280;48653;51.742;-1.256;2024-02-21T02:31:28;100999.43;;;8.54;59.34
62055;BME280;48653;51.742;-1.256;2024-02-21T02:33:53;100996.34;;;8.51;60.86
62055;BME280;48653;51.742;-1.256;2024-02-21T02:36:19;100995.69;;;9.50;58.65
62055;BME280;48653;51.742;-1.256;2024-02-21T02:38:44;100994.07;;;9.18;59.19
62055;BME280;48653;51.742;-1.256;2024-02-21T02:41:10;100991.01;;;8.78;60.90
62055;BME280;48653;51.742;-1.256;2024-02-21T02:43:35;100991.29;;;9.29;58.87
62055;BME280;48653;51.742;-1.256;2024-02-21T02:46:00;100989.94;;;8.72;59.78
62055;BME280;48653;51.742;-1.256;2024-02-21T02:48:25;100988.40;;;9.42;58.86
62055;BME280;48653;51.742;-1.256;2024-02-21T02:50:50;100984.03;;;9.60;57.92
62055;BME280;48653;51.742;-1.256;2024-02-21T02:53:16;100979.13;;;9.18;58.63
62055;BME280;48653;51.742;-1.256;2024-02-21T02:55:41;100969.09;;;9.90;57.16
62055;BME280;48653;51.742;-1.256;2024-02-21T02:58:06;100962.94;;;9.35;58.04
62055;BME280;48653;51.742;-1.256;2024-02-21T03:00:31;100955.84;;;9.36;58.04
62055;BME280;48653;51.742;-1.256;2024-02-21T03:02:59;100955.48;;;9.12;58.29
62055;BME280;48653;51.742;-1.256;2024-02-21T03:05:23;100947.96;;;8.98;59.10
62055;BME280;48653;51.742;-1.256;2024-02-21T03:07:48;100938.07;;;8.88;58.71
62055;BME280;48653;51.742;-1.256;2024-02-21T03:10:13;100938.91;;;9.20;58.01
62055;BME280;48653;51.742;-1.256;2024-02-21T03:12:39;100927.27;;;9.29;57.94
62055;BME280;48653;51.742;-1.256;2024-02-21T03:15:05;100927.24;;;8.85;58.46
62055;BME280;48653;51.742;-1.256;2024-02-21T03:17:29;100923.69;;;8.77;58.56
62055;BME280;48653;51.742;-1.256;2024-02-21T03:19:54;100916.90;;;9.61;57.59
62055;BME280;48653;51.742;-1.256;2024-02-21T03:22:20;100912.30;;;9.03;58.50
62055;BME280;48653;51.742;-1.256;2024-02-21T03:24:45;100907.39;;;8.46;59.84
62055;BME280;48653;51.742;-1.256;2024-02-21T03:27:10;100908.70;;;8.89;59.02
62055;BME280;48653;51.742;-1.256;2024-02-21T03:29:35;100899.71;;;8.51;59.43
62055;BME280;48653;51.742;-1.256;2024-02-21T03:32:00;100892.74;;;8.95;58.71
62055;BME280;48653;51.742;-1.256;2024-02-21T03:34:25;100886.22;;;8.39;59.36
62055;BME280;48653;51.742;-1.256;2024-02-21T03:36:52;100884.01;;;8.36;60.57
62055;BME280;48653;51.742;-1.256;2024-02-21T03:39:17;100873.90;;;8.83;59.60
62055;BME280;48653;51.742;-1.256;2024-02-21T03:41:42;100872.37;;;8.58;59.62
62055;BME280;48653;51.742;-1.256;2024-02-21T03:44:08;100866.35;;;8.79;59.57
62055;BME280;48653;51.742;-1.256;2024-02-21T03:46:33;100869.91;;;8.71;59.94
62055;BME280;48653;51.742;-1.256;2024-02-21T03:48:58;100868.37;;;8.83;59.24
62055;BME280;48653;51.742;-1.256;2024-02-21T03:51:23;100863.07;;;8.48;59.73
62055;BME280;48653;51.742;-1.256;2024-02-21T03:53:48;100854.79;;;8.50;60.93
62055;BME280;48653;51.742;-1.256;2024-02-21T03:56:14;100846.88;;;8.02;63.00
62055;BME280;48653;51.742;-1.256;2024-02-21T03:58:40;100842.50;;;8.51;61.79
62055;BME280;48653;51.742;-1.256;2024-02-21T04:01:05;100831.79;;;7.88;63.02
62055;BME280;48653;51.742;-1.256;2024-02-21T04:03:31;100821.86;;;8.87;61.07
62055;BME280;48653;51.742;-1.256;2024-02-21T04:05:56;100812.40;;;8.88;60.84
62055;BME280;48653;51.742;-1.256;2024-02-21T04:08:22;100803.61;;;9.02;58.94
62055;BME280;48653;51.742;-1.256;2024-02-21T04:10:46;100793.89;;;8.87;60.58
62055;BME280;48653;51.742;-1.256;2024-02-21T04:13:11;100787.75;;;8.86;59.57
62055;BME280;48653;51.742;-1.256;2024-02-21T04:15:36;100778.85;;;8.63;59.88
62055;BME280;48653;51.742;-1.256;2024-02-21T04:18:01;100777.96;;;9.07;58.75
62055;BME280;48653;51.742;-1.256;2024-02-21T04:20:26;100769.66;;;9.52;58.13
62055;BME280;48653;51.742;-1.256;2024-02-21T04:22:51;100766.95;;;9.42;58.18
62055;BME280;48653;51.742;-1.256;2024-02-21T04:25:17;100754.99;;;9.47;58.27
62055;BME280;48653;51.742;-1.256;2024-02-21T04:27:42;100747.88;;;9.82;57.62
62055;BME280;48653;51.742;-1.256;2024-02-21T04:30:07;100732.47;;;9.49;58.34
62055;BME280;48653;51.742;-1.256;2024-02-21T04:32:32;100735.97;;;8.92;59.72
62055;BME280;48653;51.742;-1.256;2024-02-21T04:34:57;100734.36;;;9.05;59.30
62055;BME280;48653;51.742;-1.256;2024-02-21T04:37:22;100724.86;;;9.46;59.42
62055;BME280;48653;51.742;-1.256;2024-02-21T04:39:47;100711.75;;;9.05;59.77
62055;BME280;48653;51.742;-1.256;2024-02-21T04:42:12;100704.08;;;9.38;59.67
62055;BME280;48653;51.742;-1.256;2024-02-21T04:44:37;100695.51;;;8.70;60.66
62055;BME280;48653;51.742;-1.256;2024-02-21T04:47:02;100690.37;;;9.13;60.14
62055;BME280;48653;51.742;-1.256;2024-02-21T04:49:27;100698.93;;;8.65;59.88
62055;BME280;48653;51.742;-1.256;2024-02-21T04:51:53;100701.85;;;8.71;60.17
62055;BME280;48653;51.742;-1.256;2024-02-21T04:54:18;100701.95;;;9.58;58.25
62055;BME280;48653;51.742;-1.256;2024-02-21T04:56:43;100701.09;;;9.30;58.37
62055;BME280;48653;51.742;-1.256;2024-02-21T04:59:08;100689.05;;;9.53;58.00
62055;BME280;48653;51.742;-1.256;2024-02-21T05:01:33;100685.46;;;9.50;58.22
62055;BME280;48653;51.742;-1.256;2024-02-21T05:03:59;100670.85;;;8.48;62.22
62055;BME280;48653;51.742;-1.256;2024-02-21T05:06:24;100660.67;;;8.70;61.65
62055;BME280;48653;51.742;-1.256;2024-02-21T05:08:49;100654.50;;;8.83;60.30
62055;BME280;48653;51.742;-1.256;2024-02-21T05:11:14;100652.04;;;8.98;59.36
62055;BME280;48653;51.742;-1.256;2024-02-21T05:13:39;100649.14;;;8.93;59.08
62055;BME280;48653;51.742;-1.256;2024-02-21T05:16:06;100636.96;;;9.00;60.21
62055;BME280;48653;51.742;-1.256;2024-02-21T05:18:29;100625.95;;;8.65;59.77
62055;BME280;48653;51.742;-1.256;2024-02-21T05:20:54;100605.66;;;9.06;59.01
62055;BME280;48653;51.742;-1.256;2024-02-21T05:23:21;100597.24;;;9.24;57.72
62055;BME280;48653;51.742;-1.256;2024-02-21T05:25:46;100598.46;;;8.25;60.27
62055;BME280;48653;51.742;-1.256;2024-02-21T05:28:16;100592.29;;;8.19;60.94
62055;BME280;48653;51.742;-1.256;2024-02-21T05:30:36;100580.75;;;8.72;59.64
62055;BME280;48653;51.742;-1.256;2024-02-21T05:33:04;100581.27;;;8.47;60.63
62055;BME280;48653;51.742;-1.256;2024-02-21T05:35:27;100571.72;;;7.91;61.49
62055;BME280;48653;51.742;-1.256;2024-02-21T05:37:53;100559.62;;;7.68;62.43
62055;BME280;48653;51.742;-1.256;2024-02-21T05:40:17;100550.92;;;7.63;62.30
62055;BME280;48653;51.742;-1.256;2024-02-21T05:42:44;100539.30;;;8.78;60.19
62055;BME280;48653;51.742;-1.256;2024-02-21T05:45:09;100531.04;;;8.10;60.84
62055;BME280;48653;51.742;-1.256;2024-02-21T05:47:33;100521.08;;;9.06;58.72
62055;BME280;48653;51.742;-1.256;2024-02-21T05:50:00;100520.40;;;8.66;59.38
62055;BME280;48653;51.742;-1.256;2024-02-21T05:52:23;100513.59;;;8.86;58.84
62055;BME280;48653;51.742;-1.256;2024-02-21T05:54:51;100510.86;;;8.75;60.47
62055;BME280;48653;51.742;-1.256;2024-02-21T05:57:15;100495.98;;;9.03;59.43
62055;BME280;48653;51.742;-1.256;2024-02-21T05:59:40;100490.10;;;8.46;61.15
62055;BME280;48653;51.742;-1.256;2024-02-21T06:02:05;100480.63;;;7.81;62.99
62055;BME280;48653;51.742;-1.256;2024-02-21T06:04:30;100467.40;;;8.33;61.82
62055;BME280;48653;51.742;-1.256;2024-02-21T06:06:56;100466.28;;;8.62;61.47
62055;BME280;48653;51.742;-1.256;2024-02-21T06:09:21;100451.88;;;7.64;64.16
62055;BME280;48653;51.742;-1.256;2024-02-21T06:11:46;100446.70;;;7.93;63.71
62055;BME280;48653;51.742;-1.256;2024-02-21T06:14:11;100442.78;;;7.87;63.72
62055;BME280;48653;51.742;-1.256;2024-02-21T06:16:37;100443.23;;;7.70;64.52
62055;BME280;48653;51.742;-1.256;2024-02-21T06:19:01;100433.13;;;7.34;65.68
62055;BME280;48653;51.742;-1.256;2024-02-21T06:21:29;100420.29;;;8.40;62.36
62055;BME280;48653;51.742;-1.256;2024-02-21T06:23:52;100408.34;;;8.84;61.33
62055;BME280;48653;51.742;-1.256;2024-02-21T06:26:18;100407.72;;;7.61;64.70
62055;BME280;48653;51.742;-1.256;2024-02-21T06:28:43;100395.50;;;7.95;64.52
62055;BME280;48653;51.742;-1.256;2024-02-21T06:31:08;100389.89;;;7.67;64.24
62055;BME280;48653;51.742;-1.256;2024-02-21T06:33:33;100382.31;;;7.98;64.50
62055;BME280;48653;51.742;-1.256;2024-02-21T06:35:58;100376.79;;;7.98;64.08
62055;BME280;48653;51.742;-1.256;2024-02-21T06:38:23;100374.86;;;7.73;64.89
62055;BME280;48653;51.742;-1.256;2024-02-21T06:40:50;100380.43;;;7.64;65.34
62055;BME280;48653;51.742;-1.256;2024-02-21T06:43:14;100372.35;;;7.72;64.19
62055;BME280;48653;51.742;-1.256;2024-02-21T06:45:39;100365.84;;;7.64;64.85
62055;BME280;48653;51.742;-1.256;2024-02-21T06:48:05;100352.82;;;7.40;65.97
62055;BME280;48653;51.742;-1.256;2024-02-21T06:50:29;100346.81;;;7.07;67.23
62055;BME280;48653;51.742;-1.256;2024-02-21T06:52:55;100340.64;;;7.90;65.73
62055;BME280;48653;51.742;-1.256;2024-02-21T06:55:20;100335.79;;;7.21;66.73
62055;BME280;48653;51.742;-1.256;2024-02-21T06:57:45;100326.83;;;7.75;65.70
62055;BME280;48653;51.742;-1.256;2024-02-21T07:00:12;100320.90;;;7.19;66.87
62055;BME280;48653;51.742;-1.256;2024-02-21T07:02:36;100313.33;;;7.68;65.86
62055;BME280;48653;51.742;-1.256;2024-02-21T07:05:01;100312.83;;;7.64;65.75
62055;BME280;48653;51.742;-1.256;2024-02-21T07:07:26;100303.73;;;7.76;64.98
62055;BME280;48653;51.742;-1.256;2024-02-21T07:09:51;100293.62;;;8.21;64.85
62055;BME280;48653;51.742;-1.256;2024-02-21T07:12:16;100274.74;;;7.88;65.46
62055;BME280;48653;51.742;-1.256;2024-02-21T07:14:42;100274.69;;;7.81;64.78
62055;BME280;48653;51.742;-1.256;2024-02-21T07:17:07;100276.61;;;8.36;64.55
62055;BME280;48653;51.742;-1.256;2024-02-21T07:19:32;100271.56;;;7.49;65.96
62055;BME280;48653;51.742;-1.256;2024-02-21T07:21:58;100268.69;;;7.28;66.88
62055;BME280;48653;51.742;-1.256;2024-02-21T07:24:22;100266.15;;;8.01;64.77
62055;BME280;48653;51.742;-1.256;2024-02-21T07:26:47;100261.33;;;8.17;64.76
62055;BME280;48653;51.742;-1.256;2024-02-21T07:29:13;100254.91;;;8.73;62.33
62055;BME280;48653;51.742;-1.256;2024-02-21T07:31:41;100243.26;;;7.98;64.98
62055;BME280;48653;51.742;-1.256;2024-02-21T07:34:03;100247.29;;;7.80;66.05
62055;BME280;48653;51.742;-1.256;2024-02-21T07:36:29;100242.26;;;8.00;65.61
62055;BME280;48653;51.742;-1.256;2024-02-21T07:38:54;100226.83;;;8.18;64.67
62055;BME280;48653;51.742;-1.256;2024-02-21T07:41:19;100226.82;;;7.38;66.39
62055;BME280;48653;51.742;-1.256;2024-02-21T07:43:43;100208.38;;;7.56;65.88
62055;BME280;48653;51.742;-1.256;2024-02-21T07:46:10;100209.05;;;8.04;65.20
62055;BME280;48653;51.742;-1.256;2024-02-21T07:48:34;100205.01;;;7.90;64.28
62055;BME280;48653;51.742;-1.256;2024-02-21T07:51:00;100199.67;;;7.64;64.80
62055;BME280;48653;51.742;-1.256;2024-02-21T07:53:24;100188.91;;;7.79;65.36
62055;BME280;48653;51.742;-1.256;2024-02-21T07:55:49;100193.14;;;8.53;64.13
62055;BME280;48653;51.742;-1.256;2024-02-21T07:58:15;100178.94;;;7.71;65.71
62055;BME280;48653;51.742;-1.256;2024-02-21T08:00:40;100177.78;;;8.15;64.72
62055;BME280;48653;51.742;-1.256;2024-02-21T08:03:05;100167.83;;;7.78;65.24
62055;BME280;48653;51.742;-1.256;2024-02-21T08:05:30;100159.90;;;7.39;66.50
62055;BME280;48653;51.742;-1.256;2024-02-21T08:07:55;100169.11;;;7.92;65.67
62055;BME280;48653;51.742;-1.256;2024-02-21T08:10:21;100161.36;;;7.46;66.35
62055;BME280;48653;51.742;-1.256;2024-02-21T08:12:46;100159.55;;;7.55;65.55
62055;BME280;48653;51.742;-1.256;2024-02-21T08:15:11;100159.29;;;8.11;64.26
62055;BME280;48653;51.742;-1.256;2024-02-21T08:17:37;100149.65;;;7.62;65.29
62055;BME280;48653;51.742;-1.256;2024-02-21T08:20:02;100142.83;;;8.46;63.39
62055;BME280;48653;51.742;-1.256;2024-02-21T08:22:26;100145.55;;;8.37;62.55
62055;BME280;48653;51.742;-1.256;2024-02-21T08:24:52;100135.93;;;8.02;63.63
62055;BME280;48653;51.742;-1.256;2024-02-21T08:27:16;100134.53;;;7.55;66.03
62055;BME280;48653;51.742;-1.256;2024-02-21T08:29:41;100128.49;;;7.65;65.72
62055;BME280;48653;51.742;-1.256;2024-02-21T08:32:06;100127.42;;;7.98;64.57
62055;BME280;48653;51.742;-1.256;2024-02-21T08:34:31;100122.67;;;7.89;65.42
62055;BME280;48653;51.742;-1.256;2024-02-21T08:36:56;100111.34;;;8.19;64.21
62055;BME280;48653;51.742;-1.256;2024-02-21T08:39:21;100104.67;;;8.97;62.33
62055;BME280;48653;51.742;-1.256;2024-02-21T08:41:46;100095.33;;;8.37;64.69
62055;BME280;48653;51.742;-1.256;2024-02-21T08:46:37;100087.66;;;7.82;65.80
62055;BME280;48653;51.742;-1.256;2024-02-21T08:49:02;100069.08;;;7.58;65.68
62055;BME280;48653;51.742;-1.256;2024-02-21T08:51:27;100086.93;;;8.00;64.44
62055;BME280;48653;51.742;-1.256;2024-02-21T08:53:52;100062.49;;;7.83;65.35
62055;BME280;48653;51.742;-1.256;2024-02-21T08:56:17;100057.92;;;8.10;65.29
62055;BME280;48653;51.742;-1.256;2024-02-21T08:58:42;100054.57;;;7.70;65.59
62055;BME280;48653;51.742;-1.256;2024-02-21T09:01:08;100041.20;;;7.27;66.97
62055;BME280;48653;51.742;-1.256;2024-02-21T09:03:32;100030.61;;;7.06;68.27
62055;BME280;48653;51.742;-1.256;2024-02-21T09:05:57;100033.41;;;7.01;68.29
62055;BME280;48653;51.742;-1.256;2024-02-21T09:13:13;100016.62;;;6.72;71.05
62055;BME280;48653;51.742;-1.256;2024-02-21T09:15:38;100002.40;;;6.95;69.66
62055;BME280;48653;51.742;-1.256;2024-02-21T09:18:03;100016.37;;;6.97;69.32
62055;BME280;48653;51.742;-1.256;2024-02-21T09:20:28;99999.75;;;7.11;70.12
62055;BME280;48653;51.742;-1.256;2024-02-21T09:27:45;99984.85;;;7.42;67.74
62055;BME280;48653;51.742;-1.256;2024-02-21T09:32:33;99958.02;;;7.11;69.14
62055;BME280;48653;51.742;-1.256;2024-02-21T09:37:23;99943.27;;;7.91;67.29
62055;BME280;48653;51.742;-1.256;2024-02-21T09:51:54;99911.44;;;7.14;70.30
62055;BME280;48653;51.742;-1.256;2024-02-21T09:54:19;99906.44;;;7.38;69.25
62055;BME280;48653;51.742;-1.256;2024-02-21T09:56:45;99896.65;;;7.76;68.92
62055;BME280;48653;51.742;-1.256;2024-02-21T09:59:09;99881.11;;;6.88;69.99
62055;BME280;48653;51.742;-1.256;2024-02-21T10:01:34;99877.44;;;6.77;72.38
62055;BME280;48653;51.742;-1.256;2024-02-21T10:03:59;99864.37;;;6.88;69.85
62055;BME280;48653;51.742;-1.256;2024-02-21T10:06:24;99852.17;;;7.43;69.89
62055;BME280;48653;51.742;-1.256;2024-02-21T10:08:52;99841.18;;;7.66;68.83
62055;BME280;48653;51.742;-1.256;2024-02-21T10:11:22;99836.05;;;7.36;69.48
62055;BME280;48653;51.742;-1.256;2024-02-21T10:13:39;99833.19;;;6.95;69.98
62055;BME280;48653;51.742;-1.256;2024-02-21T10:16:06;99828.78;;;6.77;70.44
62055;BME280;48653;51.742;-1.256;2024-02-21T10:18:30;99823.99;;;6.92;69.81
62055;BME280;48653;51.742;-1.256;2024-02-21T10:21:00;99812.92;;;7.14;70.39
62055;BME280;48653;51.742;-1.256;2024-02-21T10:23:20;99808.05;;;7.31;69.23
62055;BME280;48653;51.742;-1.256;2024-02-21T10:25:45;99797.67;;;7.47;69.78
62055;BME280;48653;51.742;-1.256;2024-02-21T10:28:12;99801.74;;;7.10;70.81
62055;BME280;48653;51.742;-1.256;2024-02-21T10:30:35;99800.74;;;7.65;69.88
62055;BME280;48653;51.742;-1.256;2024-02-21T10:33:00;99782.97;;;7.50;69.68
62055;BME280;48653;51.742;-1.256;2024-02-21T10:35:27;99776.55;;;7.14;71.47
62055;BME280;48653;51.742;-1.256;2024-02-21T10:37:50;99771.21;;;7.15;71.15
62055;BME280;48653;51.742;-1.256;2024-02-21T10:40:15;99769.00;;;7.52;68.95
62055;BME280;48653;51.742;-1.256;2024-02-21T10:42:40;99752.05;;;7.35;68.36
62055;BME280;48653;51.742;-1.256;2024-02-21T10:45:07;99746.97;;;7.87;67.28
62055;BME280;48653;51.742;-1.256;2024-02-21T10:47:32;99745.39;;;7.40;68.74
62055;BME280;48653;51.742;-1.256;2024-02-21T10:50:00;99747.43;;;7.16;69.56
62055;BME280;48653;51.742;-1.256;2024-02-21T10:52:28;99734.82;;;7.21;69.94
62055;BME280;48653;51.742;-1.256;2024-02-21T10:54:55;99729.48;;;7.30;69.53
62055;BME280;48653;51.742;-1.256;2024-02-21T10:57:13;99720.58;;;7.57;70.31
62055;BME280;48653;51.742;-1.256;2024-02-21T10:59:37;99723.73;;;7.84;68.65
62055;BME280;48653;51.742;-1.256;2024-02-21T11:02:01;99722.91;;;7.61;68.13
62055;BME280;48653;51.742;-1.256;2024-02-21T11:04:27;99722.71;;;7.68;69.36
62055;BME280;48653;51.742;-1.256;2024-02-21T11:06:51;99706.21;;;7.44;69.99
62055;BME280;48653;51.742;-1.256;2024-02-21T11:09:16;99699.16;;;7.42;69.39
62055;BME280;48653;51.742;-1.256;2024-02-21T11:11:43;99696.68;;;6.73;70.32
62055;BME280;48653;51.742;-1.256;2024-02-21T11:14:07;99689.84;;;7.25;70.55
62055;BME280;48653;51.742;-1.256;2024-02-21T11:16:35;99683.19;;;7.00;70.69
62055;BME280;48653;51.742;-1.256;2024-02-21T11:21:21;99678.92;;;7.74;69.60
62055;BME280;48653;51.742;-1.256;2024-02-21T11:23:54;99671.97;;;7.85;70.53
62055;BME280;48653;51.742;-1.256;2024-02-21T11:26:18;99661.04;;;7.88;68.90
62055;BME280;48653;51.742;-1.256;2024-02-21T11:28:37;99654.47;;;7.69;69.48
62055;BME280;48653;51.742;-1.256;2024-02-21T11:31:08;99641.85;;;7.72;69.34
62055;BME280;48653;51.742;-1.256;2024-02-21T11:33:27;99637.25;;;6.90;71.30
62055;BME280;48653;51.742;-1.256;2024-02-21T11:35:52;99631.31;;;8.10;68.54
62055;BME280;48653;51.742;-1.256;2024-02-21T11:38:17;99623.56;;;7.88;68.90
62055;BME280;48653;51.742;-1.256;2024-02-21T11:40:44;99611.62;;;7.48;70.77
62055;BME280;48653;51.742;-1.256;2024-02-21T11:43:07;99610.62;;;7.62;70.59
62055;BME280;48653;51.742;-1.256;2024-02-21T11:45:32;99611.89;;;7.18;71.53
62055;BME280;48653;51.742;-1.256;2024-02-21T11:47:57;99603.15;;;7.86;69.24
62055;BME280;48653;51.742;-1.256;2024-02-21T11:50:22;99602.96;;;7.46;70.72
62055;BME280;48653;51.742;-1.256;2024-02-21T11:52:48;99597.93;;;7.16;72.85
62055;BME280;48653;51.742;-1.256;2024-02-21T11:55:12;99571.66;;;7.72;70.76
62055;BME280;48653;51.742;-1.256;2024-02-21T11:57:38;99554.58;;;7.78;70.19
62055;BME280;48653;51.742;-1.256;2024-02-21T12:00:12;99556.77;;;7.68;69.04
62055;BME280;48653;51.742;-1.256;2024-02-21T12:02:27;99543.77;;;8.27;69.52
62055;BME280;48653;51.742;-1.256;2024-02-21T12:04:52;99556.24;;;7.58;70.04
62055;BME280;48653;51.742;-1.256;2024-02-21T12:07:18;99537.73;;;7.66;70.02
62055;BME280;48653;51.742;-1.256;2024-02-21T12:09:42;99536.73;;;7.41;72.17
62055;BME280;48653;51.742;-1.256;2024-02-21T12:12:08;99522.18;;;8.31;69.73
62055;BME280;48653;51.742;-1.256;2024-02-21T12:14:34;99536.87;;;7.74;70.43
62055;BME280;48653;51.742;-1.256;2024-02-21T12:16:58;99512.43;;;7.88;70.72
62055;BME280;48653;51.742;-1.256;2024-02-21T12:19:23;99512.24;;;8.43;69.04
62055;BME280;48653;51.742;-1.256;2024-02-21T12:21:48;99511.50;;;8.38;69.16
62055;BME280;48653;51.742;-1.256;2024-02-21T12:24:14;99499.25;;;8.03;68.65
62055;BME280;48653;51.742;-1.256;2024-02-21T12:26:38;99495.68;;;7.51;71.12
62055;BME280;48653;51.742;-1.256;2024-02-21T12:29:03;99479.57;;;8.22;69.19
62055;BME280;48653;51.742;-1.256;2024-02-21T12:31:28;99471.63;;;8.88;67.64
62055;BME280;48653;51.742;-1.256;2024-02-21T12:33:53;99461.43;;;8.10;68.13
62055;BME280;48653;51.742;-1.256;2024-02-21T12:36:18;99454.17;;;8.41;68.53
62055;BME280;48653;51.742;-1.256;2024-02-21T12:38:43;99447.70;;;7.89;69.46
62055;BME280;48653;51.742;-1.256;2024-02-21T12:41:08;99431.11;;;8.51;68.56
62055;BME280;48653;51.742;-1.256;2024-02-21T12:43:33;99437.75;;;8.12;69.37
62055;BME280;48653;51.742;-1.256;2024-02-21T12:45:59;99434.94;;;8.53;68.33
62055;BME280;48653;51.742;-1.256;2024-02-21T12:48:23;99418.71;;;8.28;69.44
62055;BME280;48653;51.742;-1.256;2024-02-21T12:50:50;99412.85;;;8.55;68.71
62055;BME280;48653;51.742;-1.256;2024-02-21T12:53:14;99401.06;;;7.79;71.11
62055;BME280;48653;51.742;-1.256;2024-02-21T12:55:39;99389.17;;;8.15;70.19
62055;BME280;48653;51.742;-1.256;2024-02-21T12:58:06;99377.69;;;8.09;70.99
62055;BME280;48653;51.742;-1.256;2024-02-21T13:00:29;99375.35;;;8.09;71.21
62055;BME280;48653;51.742;-1.256;2024-02-21T13:02:54;99363.41;;;8.46;70.49
62055;BME280;48653;51.742;-1.256;2024-02-21T13:05:19;99358.06;;;8.70;69.67
62055;BME280;48653;51.742;-1.256;2024-02-21T13:07:44;99344.13;;;8.43;70.88
62055;BME280;48653;51.742;-1.256;2024-02-21T13:10:09;99338.82;;;8.14;71.62
62055;BME280;48653;51.742;-1.256;2024-02-21T13:12:34;99338.32;;;8.39;70.34
62055;BME280;48653;51.742;-1.256;2024-02-21T13:14:59;99335.60;;;8.40;69.29